Time;durP1;ratioP1;P1;durP2;ratioP2;P2;SDS_P1;SDS_P2;PMS_P1;PMS_P2;Temp;Humidity;BMP_temperature;BMP_pressure;BME280_temperature;BME280_humidity;BME280_pressure;Samples;Min_cycle;Max_cycle;Signal;HPM_P1;HPM_P2
2021/05/05 00:00:45;;;;;;;3.13;1.27;;;6.40;99.90;;;;;;5076154;28;20105;-87
2021/05/05 00:03:18;;;;;;;3.53;1.13;;;6.60;99.90;;;;;;5076198;28;20079;-89
2021/05/05 00:05:44;;;;;;;1.95;1.20;;;6.80;99.90;;;;;;5075970;28;20111;-87
2021/05/05 00:08:10;;;;;;;2.03;1.45;;;6.80;99.90;;;;;;5075813;28;20123;-87
2021/05/05 00:10:36;;;;;;;5.72;1.55;;;7.00;99.90;;;;;;5076012;28;20462;-87
2021/05/05 00:13:03;;;;;;;2.38;1.27;;;7.00;99.90;;;;;;5075960;28;20040;-88
2021/05/05 00:15:29;;;;;;;1.77;1.02;;;7.20;99.90;;;;;;5076272;28;20101;-87
2021/05/05 00:17:56;;;;;;;1.30;1.00;;;7.30;99.90;;;;;;5094518;28;20072;-87
2021/05/05 00:20:23;;;;;;;2.85;1.10;;;7.10;99.90;;;;;;5076067;28;20634;-88
2021/05/05 00:22:51;;;;;;;2.15;0.98;;;6.90;99.90;;;;;;5076193;28;20044;-88
2021/05/05 00:25:19;;;;;;;3.63;1.25;;;6.80;99.90;;;;;;5075511;28;20091;-87
2021/05/05 00:27:50;;;;;;;2.95;1.13;;;6.60;99.90;;;;;;5074978;28;20483;-88
2021/05/05 00:30:17;;;;;;;3.92;1.73;;;6.30;99.90;;;;;;5093788;28;20044;-88
2021/05/05 00:32:44;;;;;;;2.40;1.05;;;6.30;99.90;;;;;;5075872;28;20051;-88
2021/05/05 00:35:10;;;;;;;2.22;1.60;;;6.20;99.90;;;;;;5075955;28;20487;-88
2021/05/05 00:37:39;;;;;;;2.75;1.42;;;6.10;99.90;;;;;;5075939;28;20048;-88
2021/05/05 00:40:06;;;;;;;3.22;1.50;;;5.90;99.90;;;;;;5075680;28;20048;-88
2021/05/05 00:42:33;;;;;;;2.67;1.55;;;5.80;99.90;;;;;;5075539;28;20082;-89
2021/05/05 00:45:09;;;;;;;3.42;1.50;;;5.90;99.90;;;;;;5075471;28;20567;-88
2021/05/05 00:47:38;;;;;;;4.80;1.58;;;5.80;99.90;;;;;;5083997;28;20529;-88
2021/05/05 00:50:06;;;;;;;2.58;1.60;;;5.70;99.90;;;;;;5095782;28;20135;-88
2021/05/05 00:52:35;;;;;;;5.00;1.70;;;5.60;99.90;;;;;;5095747;28;20105;-87
2021/05/05 00:55:03;;;;;;;3.47;1.48;;;5.70;99.90;;;;;;5114160;28;20406;-88
2021/05/05 00:57:31;;;;;;;5.47;1.85;;;5.60;99.90;;;;;;5095763;28;20105;-88
2021/05/05 00:59:58;;;;;;;4.25;1.58;;;5.50;99.90;;;;;;5095681;28;20101;-88
2021/05/05 01:02:24;;;;;;;3.90;1.60;;;5.40;99.90;;;;;;5095758;28;20071;-87
2021/05/05 01:04:51;;;;;;;5.82;1.88;;;5.30;99.90;;;;;;5095749;28;20130;-88
2021/05/05 01:07:18;;;;;;;2.22;1.73;;;5.40;99.90;;;;;;5095650;28;20100;-87
2021/05/05 01:09:46;;;;;;;4.75;1.80;;;5.40;99.90;;;;;;5095743;28;20063;-88
2021/05/05 01:12:15;;;;;;;6.85;1.83;;;5.40;99.90;;;;;;5095643;28;20458;-88
2021/05/05 01:14:42;;;;;;;3.60;1.40;;;5.40;99.90;;;;;;5095696;28;20078;-87
2021/05/05 01:17:09;;;;;;;6.40;2.05;;;5.30;99.90;;;;;;5095732;28;20134;-88
2021/05/05 01:19:36;;;;;;;4.82;1.40;;;5.20;99.90;;;;;;5095696;28;20071;-87
2021/05/05 01:22:03;;;;;;;6.35;1.55;;;5.10;99.90;;;;;;5095460;28;20075;-87
2021/05/05 01:24:33;;;;;;;1.50;1.42;;;5.00;99.90;;;;;;5095420;28;20131;-88
2021/05/05 01:27:00;;;;;;;10.77;1.60;;;4.90;99.90;;;;;;5095244;28;20043;-88
2021/05/05 01:29:26;;;;;;;6.22;2.10;;;4.90;99.90;;;;;;5113155;28;20572;-88
2021/05/05 01:31:52;;;;;;;3.08;1.98;;;4.80;99.90;;;;;;5113476;28;20039;-87
2021/05/05 01:34:19;;;;;;;11.68;2.13;;;4.80;99.90;;;;;;5095801;28;20043;-87
2021/05/05 01:36:46;;;;;;;2.47;1.60;;;4.80;99.90;;;;;;5095665;28;20079;-87
2021/05/05 01:39:18;;;;;;;4.03;1.60;;;4.70;99.90;;;;;;5099012;28;20075;-87
2021/05/05 01:41:45;;;;;;;2.58;1.67;;;4.70;99.90;;;;;;5099100;28;20726;-87
2021/05/05 01:44:13;;;;;;;1.65;1.38;;;4.60;99.90;;;;;;5098963;28;20075;-87
2021/05/05 01:46:46;;;;;;;1.70;1.60;;;4.50;99.90;;;;;;5098325;28;20044;-87
2021/05/05 01:49:21;;;;;;;5.22;2.03;;;4.40;99.90;;;;;;5098673;28;20047;-87
2021/05/05 01:51:54;;;;;;;4.75;2.17;;;4.30;99.90;;;;;;5117164;28;20083;-87
2021/05/05 01:54:22;;;;;;;3.22;2.20;;;4.40;99.90;;;;;;5098814;28;20043;-88
2021/05/05 01:56:49;;;;;;;3.17;2.15;;;4.40;99.90;;;;;;5099219;28;20051;-88
2021/05/05 01:59:15;;;;;;;3.75;2.05;;;4.30;99.90;;;;;;5098973;28;20053;-88
2021/05/05 02:01:43;;;;;;;6.28;2.30;;;4.30;99.90;;;;;;5116219;28;20093;-87
2021/05/05 02:04:18;;;;;;;4.18;2.50;;;4.30;99.90;;;;;;5119451;28;20130;-87
2021/05/05 02:06:51;;;;;;;3.25;2.03;;;4.30;99.90;;;;;;5099590;28;20525;-87
2021/05/05 02:09:17;;;;;;;10.40;2.22;;;4.30;99.90;;;;;;5098669;28;20116;-87
2021/05/05 02:11:43;;;;;;;7.68;2.22;;;4.30;99.90;;;;;;5098783;28;20067;-87
2021/05/05 02:14:10;;;;;;;5.47;2.30;;;4.30;99.90;;;;;;5098662;28;20451;-87
2021/05/05 02:16:36;;;;;;;7.35;1.73;;;4.30;99.90;;;;;;5098541;28;20091;-87
2021/05/05 02:19:02;;;;;;;5.22;2.35;;;4.30;99.90;;;;;;5098127;28;20055;-87
2021/05/05 02:21:28;;;;;;;4.28;2.00;;;4.30;99.90;;;;;;5098405;28;20079;-87
2021/05/05 02:23:59;;;;;;;4.10;2.20;;;4.30;99.90;;;;;;5098368;28;20472;-87
2021/05/05 02:26:25;;;;;;;3.53;2.03;;;4.30;99.90;;;;;;5098480;28;20036;-87
2021/05/05 02:28:52;;;;;;;8.90;3.13;;;4.30;99.90;;;;;;5098104;28;20040;-87
2021/05/05 02:31:19;;;;;;;6.25;2.17;;;4.20;99.90;;;;;;5115971;28;20108;-87
2021/05/05 02:33:45;;;;;;;4.78;2.13;;;4.20;99.90;;;;;;5098129;28;20105;-87
2021/05/05 02:36:12;;;;;;;5.65;2.45;;;4.20;99.90;;;;;;5097885;28;20494;-88
2021/05/05 02:38:38;;;;;;;1.90;1.75;;;4.20;99.90;;;;;;5116062;28;20051;-88
2021/05/05 02:41:05;;;;;;;3.97;2.08;;;4.20;99.90;;;;;;5116202;28;20052;-88
2021/05/05 02:43:31;;;;;;;6.50;2.25;;;4.30;99.90;;;;;;5097983;28;20074;-87
2021/05/05 02:45:59;;;;;;;5.68;2.47;;;4.30;99.90;;;;;;5097768;28;20094;-87
2021/05/05 02:48:25;;;;;;;6.85;2.47;;;4.20;99.90;;;;;;5097176;28;20494;-87
2021/05/05 02:50:51;;;;;;;4.68;2.22;;;4.20;99.90;;;;;;5097356;28;20090;-87
2021/05/05 02:53:18;;;;;;;5.43;2.10;;;4.10;99.90;;;;;;5097694;28;20096;-87
2021/05/05 02:55:45;;;;;;;2.08;1.85;;;4.10;99.90;;;;;;5098362;28;20093;-86
2021/05/05 02:58:11;;;;;;;6.70;2.28;;;4.10;99.90;;;;;;5097766;28;20132;-87
2021/05/05 03:00:37;;;;;;;4.60;3.08;;;4.10;99.90;;;;;;5097633;28;20055;-87
2021/05/05 03:03:04;;;;;;;5.75;2.25;;;4.30;99.90;;;;;;5097074;28;20086;-87
2021/05/05 03:05:30;;;;;;;3.95;1.92;;;4.30;99.90;;;;;;5097203;28;20102;-87
2021/05/05 03:07:56;;;;;;;5.22;1.88;;;4.20;99.90;;;;;;5097503;28;20055;-88
2021/05/05 03:10:24;;;;;;;4.68;1.95;;;4.10;99.90;;;;;;5097621;28;20043;-87
2021/05/05 03:12:50;;;;;;;5.63;2.28;;;4.00;99.90;;;;;;5097107;28;20085;-87
2021/05/05 03:15:16;;;;;;;16.20;2.90;;;4.10;99.90;;;;;;5097461;28;20048;-87
2021/05/05 03:17:43;;;;;;;6.95;4.93;;;4.00;99.90;;;;;;5097216;28;20048;-87
2021/05/05 03:20:11;;;;;;;12.20;6.88;;;4.00;99.90;;;;;;5097533;28;20070;-87
2021/05/05 03:22:37;;;;;;;7.70;5.50;;;4.00;99.90;;;;;;5097073;28;20191;-87
2021/05/05 03:25:08;;;;;;;10.20;5.18;;;4.00;99.90;;;;;;5115038;28;20459;-87
2021/05/05 03:27:34;;;;;;;9.38;4.97;;;3.80;99.90;;;;;;5096769;28;20113;-87
2021/05/05 03:30:01;;;;;;;7.88;4.10;;;3.80;99.90;;;;;;5096636;28;20486;-86
2021/05/05 03:32:28;;;;;;;9.90;4.03;;;3.80;99.90;;;;;;5096858;28;20069;-85
2021/05/05 03:34:54;;;;;;;6.60;3.97;;;3.80;99.90;;;;;;5096737;28;20486;-87
2021/05/05 03:37:21;;;;;;;7.50;4.10;;;3.80;99.90;;;;;;5096448;28;20039;-88
2021/05/05 03:39:47;;;;;;;7.32;3.58;;;3.80;99.90;;;;;;5096227;28;20583;-87
2021/05/05 03:42:16;;;;;;;5.47;3.22;;;3.90;99.90;;;;;;5096917;28;20094;-87
2021/05/05 03:44:42;;;;;;;7.53;4.05;;;3.90;99.90;;;;;;5096548;28;20067;-87
2021/05/05 03:47:08;;;;;;;6.82;3.75;;;4.00;99.90;;;;;;5096461;28;20050;-86
2021/05/05 03:49:35;;;;;;;7.03;3.42;;;4.00;99.90;;;;;;5096529;28;20043;-87
2021/05/05 03:52:02;;;;;;;7.20;3.60;;;4.10;99.90;;;;;;5115267;28;20092;-87
2021/05/05 03:54:28;;;;;;;13.77;4.60;;;4.00;99.90;;;;;;5115486;28;20082;-87
2021/05/05 03:56:54;;;;;;;11.15;4.30;;;4.10;99.90;;;;;;5096778;28;20443;-87
2021/05/05 03:59:20;;;;;;;13.15;4.32;;;4.10;99.90;;;;;;5096709;28;20092;-87
2021/05/05 04:01:48;;;;;;;9.38;3.97;;;4.10;99.90;;;;;;5096065;28;20047;-88
2021/05/05 04:04:14;;;;;;;8.57;3.75;;;4.20;99.90;;;;;;5096305;28;20047;-88
2021/05/05 04:06:41;;;;;;;7.78;3.70;;;4.30;99.90;;;;;;5096161;28;20555;-87
2021/05/05 04:09:07;;;;;;;6.82;3.30;;;4.30;99.90;;;;;;5096343;28;20071;-87
2021/05/05 04:11:33;;;;;;;13.73;3.67;;;4.30;99.90;;;;;;5114027;28;20550;-87
2021/05/05 04:14:01;;;;;;;6.20;4.00;;;4.40;99.90;;;;;;5096992;28;20043;-87
2021/05/05 04:16:45;;;;;;;7.25;3.05;;;4.50;99.90;;;;;;5099216;28;20051;-87
2021/05/05 04:19:30;;;;;;;7.93;3.03;;;4.60;99.90;;;;;;5099857;28;20042;-87
2021/05/05 04:22:14;;;;;;;8.80;3.72;;;4.60;99.90;;;;;;5099161;28;20051;-87
2021/05/05 04:24:59;;;;;;;7.13;3.70;;;4.60;99.90;;;;;;5099218;28;20605;-87
2021/05/05 04:27:26;;;;;;;11.40;3.85;;;4.60;99.90;;;;;;5096551;28;20131;-87
2021/05/05 04:29:53;;;;;;;6.72;3.20;;;4.70;99.90;;;;;;5096302;28;20093;-87
2021/05/05 04:32:23;;;;;;;12.18;3.03;;;4.80;99.90;;;;;;5096590;28;20098;-87
2021/05/05 04:34:49;;;;;;;7.57;2.75;;;4.80;99.90;;;;;;5114116;28;20044;-87
2021/05/05 04:37:16;;;;;;;7.53;2.22;;;4.90;99.90;;;;;;5114175;28;20075;-86
2021/05/05 04:39:43;;;;;;;8.13;2.08;;;4.90;99.90;;;;;;5096274;28;20051;-87
2021/05/05 04:42:11;;;;;;;8.85;2.55;;;4.90;99.90;;;;;;5096309;28;20056;-88
2021/05/05 04:44:38;;;;;;;6.70;2.65;;;4.90;99.90;;;;;;5095818;28;20094;-87
2021/05/05 04:47:05;;;;;;;7.25;2.28;;;5.00;99.90;;;;;;5095902;28;20060;-86
2021/05/05 04:49:31;;;;;;;5.03;1.90;;;5.00;99.90;;;;;;5096530;28;20046;-87
2021/05/05 04:51:58;;;;;;;6.32;1.92;;;5.10;99.90;;;;;;5095940;28;20087;-87
2021/05/05 04:54:24;;;;;;;3.72;2.08;;;5.30;99.90;;;;;;5095943;28;20130;-87
2021/05/05 04:56:57;;;;;;;5.63;1.73;;;5.40;99.90;;;;;;5114157;28;20055;-86
2021/05/05 04:59:23;;;;;;;6.05;1.85;;;5.60;99.90;;;;;;5095921;28;20071;-87
2021/05/05 05:01:54;;;;;;;5.18;1.75;;;5.80;99.90;;;;;;5095886;28;20086;-87
2021/05/05 05:04:20;;;;;;;3.28;1.63;;;6.10;99.90;;;;;;5096085;28;20051;-87
2021/05/05 05:06:46;;;;;;;6.22;1.77;;;6.20;99.90;;;;;;5117811;28;20069;-86
2021/05/05 05:09:13;;;;;;;2.90;1.40;;;6.40;99.90;;;;;;5116927;28;20120;-86
2021/05/05 05:11:39;;;;;;;7.72;1.40;;;6.80;99.90;;;;;;5116535;27;20047;-85
2021/05/05 05:14:05;;;;;;;3.03;1.00;;;7.10;99.90;;;;;;5120050;27;20067;-88
2021/05/05 05:16:31;;;;;;;6.13;1.13;;;7.60;99.90;;;;;;5120608;27;20101;-87
2021/05/05 05:18:57;;;;;;;4.50;1.45;;;8.10;99.90;;;;;;5138567;27;20395;-87
2021/05/05 05:21:24;;;;;;;3.53;1.30;;;9.00;99.90;;;;;;5119872;27;20516;-86
2021/05/05 05:23:54;;;;;;;3.92;1.20;;;10.10;99.90;;;;;;5121878;27;20104;-85
2021/05/05 05:26:20;;;;;;;1.77;0.70;;;10.50;99.90;;;;;;5138833;27;20074;-87
2021/05/05 05:28:46;;;;;;;4.63;1.17;;;10.80;99.90;;;;;;5120566;27;20142;-86
2021/05/05 05:31:14;;;;;;;4.90;1.00;;;11.40;99.90;;;;;;5120203;27;20129;-85
2021/05/05 05:33:40;;;;;;;1.92;1.10;;;11.80;99.90;;;;;;5121889;27;20126;-86
2021/05/05 05:36:07;;;;;;;2.65;1.10;;;11.60;99.90;;;;;;5122657;27;20074;-86
2021/05/05 05:38:33;;;;;;;4.05;1.20;;;10.90;99.90;;;;;;5122711;27;20074;-86
2021/05/05 05:40:59;;;;;;;3.17;0.82;;;10.30;99.90;;;;;;5140119;27;20119;-87
2021/05/05 05:43:26;;;;;;;1.75;1.10;;;9.70;99.90;;;;;;5121546;27;20469;-86
2021/05/05 05:45:52;;;;;;;3.08;1.05;;;9.40;99.90;;;;;;5138747;27;20089;-85
2021/05/05 05:48:18;;;;;;;6.38;2.70;;;9.20;99.90;;;;;;5117824;28;20086;-85
2021/05/05 05:50:45;;;;;;;4.93;1.83;;;9.00;99.90;;;;;;5118007;28;20074;-86
2021/05/05 05:53:11;;;;;;;9.55;1.70;;;8.80;99.90;;;;;;5117915;28;20081;-85
2021/05/05 05:55:41;;;;;;;11.30;3.45;;;8.80;99.90;;;;;;5118391;28;20079;-86
2021/05/05 05:58:07;;;;;;;8.05;3.40;;;9.10;99.90;;;;;;5117544;28;20078;-85
2021/05/05 06:00:34;;;;;;;7.10;1.67;;;9.40;99.90;;;;;;5118654;28;20130;-86
2021/05/05 06:03:04;;;;;;;6.47;1.80;;;9.50;99.90;;;;;;5116606;28;20410;-87
2021/05/05 06:05:35;;;;;;;10.70;1.48;;;9.40;99.90;;;;;;5116727;28;20084;-86
2021/05/05 06:08:05;;;;;;;7.72;2.67;;;10.40;99.90;;;;;;5117939;28;20403;-86
2021/05/05 06:10:32;;;;;;;5.85;1.60;;;11.40;99.90;;;;;;5117297;28;20039;-85
2021/05/05 06:12:58;;;;;;;4.00;1.15;;;11.80;99.90;;;;;;5117387;28;20078;-85
2021/05/05 06:15:26;;;;;;;5.00;1.27;;;12.30;99.90;;;;;;5116665;28;20120;-86
2021/05/05 06:17:52;;;;;;;4.85;1.63;;;12.00;99.90;;;;;;5116799;28;20047;-85
2021/05/05 06:20:19;;;;;;;4.05;1.20;;;11.10;99.90;;;;;;5115564;28;20097;-83
2021/05/05 06:22:47;;;;;;;8.30;1.60;;;11.20;99.90;;;;;;5114794;28;20108;-87
2021/05/05 06:25:14;;;;;;;4.38;0.90;;;11.60;99.90;;;;;;5116649;28;20047;-87
2021/05/05 06:27:41;;;;;;;3.78;1.35;;;12.10;99.90;;;;;;5115991;28;20047;-87
2021/05/05 06:30:09;;;;;;;6.53;2.40;;;12.80;99.90;;;;;;5116169;28;20130;-84
2021/05/05 06:32:36;;;;;;;7.45;1.70;;;13.40;99.90;;;;;;5115838;28;20048;-85
2021/05/05 06:35:04;;;;;;;4.03;1.15;;;13.10;99.90;;;;;;5116818;28;20440;-86
2021/05/05 06:37:31;;;;;;;4.53;1.55;;;12.80;99.90;;;;;;5116991;28;20134;-87
2021/05/05 06:40:00;;;;;;;3.50;1.10;;;12.40;99.90;;;;;;5096429;28;20048;-85
2021/05/05 06:42:27;;;;;;;8.43;1.25;;;12.40;99.90;;;;;;5075035;28;20044;-85
2021/05/05 06:44:54;;;;;;;5.35;1.63;;;12.20;99.90;;;;;;5074910;28;20079;-84
2021/05/05 06:47:22;;;;;;;6.95;1.15;;;11.30;99.90;;;;;;5095968;28;20127;-86
2021/05/05 06:49:49;;;;;;;5.55;1.30;;;11.00;99.90;;;;;;5078320;28;20135;-85
2021/05/05 06:52:15;;;;;;;7.85;1.48;;;12.10;99.90;;;;;;5079215;28;20505;-86
2021/05/05 06:54:42;;;;;;;7.13;1.38;;;12.90;99.90;;;;;;5081780;28;20075;-84
2021/05/05 06:57:09;;;;;;;6.65;1.27;;;13.40;98.70;;;;;;5079771;28;20052;-85
2021/05/05 06:59:35;;;;;;;2.83;1.20;;;13.50;99.60;;;;;;5078923;28;20052;-86
2021/05/05 07:02:02;;;;;;;10.18;2.00;;;14.00;96.20;;;;;;5079382;28;20044;-82
2021/05/05 07:04:28;;;;;;;6.25;1.90;;;13.50;96.80;;;;;;5079818;28;20404;-81
2021/05/05 07:06:59;;;;;;;11.43;2.70;;;12.90;96.20;;;;;;5079700;28;20044;-86
2021/05/05 07:09:33;;;;;;;8.82;1.85;;;12.20;97.20;;;;;;5081266;28;20472;-85
2021/05/05 07:12:00;;;;;;;5.22;1.20;;;11.90;99.90;;;;;;5078948;28;20095;-86
2021/05/05 07:14:27;;;;;;;6.70;1.52;;;12.00;98.90;;;;;;5098148;28;20070;-83
2021/05/05 07:16:55;;;;;;;11.75;2.47;;;12.50;99.20;;;;;;5079634;28;20044;-85
2021/05/05 07:19:22;;;;;;;12.75;2.83;;;12.00;97.70;;;;;;5079013;28;20143;-84
2021/05/05 07:21:49;;;;;;;7.20;1.42;;;11.60;99.90;;;;;;5079840;28;20059;-85
2021/05/05 07:24:16;;;;;;;11.88;2.00;;;11.70;99.90;;;;;;5079445;28;20044;-85
2021/05/05 07:26:43;;;;;;;6.47;1.33;;;11.70;99.90;;;;;;5078975;28;20131;-81
2021/05/05 07:29:09;;;;;;;8.23;1.42;;;11.50;99.90;;;;;;5080117;28;20048;-85
2021/05/05 07:31:35;;;;;;;7.43;1.92;;;11.20;99.90;;;;;;5097023;28;20071;-83
2021/05/05 07:34:02;;;;;;;5.93;1.60;;;11.10;99.90;;;;;;5078639;28;20101;-86
2021/05/05 07:36:30;;;;;;;6.55;1.67;;;11.00;99.90;;;;;;5096211;28;20094;-86
2021/05/05 07:49:38;;;;;;;6.68;1.30;;;15.80;83.40;;;;;;5097129;28;20048;-83
2021/05/05 07:52:05;;;;;;;3.80;0.95;;;15.80;75.80;;;;;;5077923;28;20110;-84
2021/05/05 07:54:30;;;;;;;3.45;1.08;;;14.80;75.40;;;;;;5096774;28;20028;-84
2021/05/05 07:56:56;;;;;;;5.00;1.10;;;13.70;79.00;;;;;;5096324;28;20800;-84
2021/05/05 07:59:21;;;;;;;14.23;2.53;;;12.80;84.60;;;;;;5096874;28;20062;-85
2021/05/05 08:01:48;;;;;;;3.97;1.10;;;12.10;92.10;;;;;;5077890;28;20540;-86
2021/05/05 08:04:14;;;;;;;5.55;1.40;;;12.70;92.80;;;;;;5077026;28;20426;-83
2021/05/05 08:06:41;;;;;;;4.20;1.40;;;12.80;91.00;;;;;;5076843;28;20044;-84
2021/05/05 08:09:07;;;;;;;2.08;0.95;;;13.30;85.80;;;;;;5076417;28;20097;-84
2021/05/05 08:11:33;;;;;;;8.70;1.30;;;13.50;84.50;;;;;;5076717;28;20117;-85
2021/05/05 08:13:59;;;;;;;4.55;0.90;;;13.40;81.20;;;;;;5077118;28;20044;-86
2021/05/05 08:16:26;;;;;;;3.85;1.05;;;13.90;81.10;;;;;;5095297;28;20560;-85
2021/05/05 08:18:53;;;;;;;4.00;1.13;;;14.40;79.00;;;;;;5077995;28;20051;-82
2021/05/05 08:21:22;;;;;;;4.95;1.52;;;14.30;76.10;;;;;;5096381;28;20076;-83
2021/05/05 08:23:48;;;;;;;8.05;4.10;;;13.20;79.70;;;;;;5095831;28;20052;-85
2021/05/05 08:26:14;;;;;;;3.17;1.30;;;12.30;84.50;;;;;;5078351;28;20487;-81
2021/05/05 08:28:41;;;;;;;10.88;1.70;;;11.70;89.60;;;;;;5078054;28;20494;-86
2021/05/05 08:31:13;;;;;;;4.72;1.05;;;11.00;95.60;;;;;;5078350;28;20048;-84
2021/05/05 08:33:39;;;;;;;5.38;1.17;;;10.70;99.90;;;;;;5078639;28;20040;-85
2021/05/05 08:36:05;;;;;;;3.83;1.10;;;10.40;99.90;;;;;;5079522;28;20051;-85
2021/05/05 08:38:32;;;;;;;3.72;1.15;;;10.70;99.90;;;;;;5078459;28;20466;-83
2021/05/05 08:40:59;;;;;;;4.85;1.20;;;12.50;99.90;;;;;;5078578;28;20477;-83
2021/05/05 08:43:26;;;;;;;3.42;0.95;;;14.00;92.90;;;;;;5078235;28;20102;-85
2021/05/05 08:45:57;;;;;;;1.92;0.85;;;15.20;88.10;;;;;;5078603;28;20070;-86
2021/05/05 08:48:24;;;;;;;2.72;1.17;;;16.40;73.80;;;;;;5080415;28;20467;-84
2021/05/05 08:50:50;;;;;;;2.55;0.98;;;16.50;71.30;;;;;;5081813;28;20048;-83
2021/05/05 08:53:16;;;;;;;3.92;0.98;;;16.90;68.70;;;;;;5081322;28;20478;-85
2021/05/05 08:55:43;;;;;;;2.63;0.93;;;16.60;69.20;;;;;;5081991;28;20080;-85
2021/05/05 08:58:10;;;;;;;4.25;1.10;;;16.50;68.60;;;;;;5081519;28;20074;-84
2021/05/05 09:00:38;;;;;;;7.05;1.10;;;16.30;67.00;;;;;;5099142;28;20135;-84
2021/05/05 09:03:07;;;;;;;3.00;1.00;;;15.50;68.80;;;;;;5082401;28;20411;-83
2021/05/05 09:05:57;;;;;;;2.88;1.17;;;14.10;76.70;;;;;;5082821;28;20062;-81
2021/05/05 09:08:25;;;;;;;5.28;1.35;;;12.60;92.70;;;;;;5081800;28;20083;-85
2021/05/05 09:11:13;;;;;;;2.78;1.15;;;11.50;99.90;;;;;;5083153;28;20055;-85
2021/05/05 09:13:50;;;;;;;4.93;1.13;;;10.60;99.90;;;;;;5083066;28;20067;-82
2021/05/05 09:16:21;;;;;;;5.00;1.40;;;9.70;99.90;;;;;;5083189;28;20052;-85
2021/05/05 09:19:04;;;;;;;4.07;1.63;;;9.40;99.90;;;;;;5080619;28;20051;-85
2021/05/05 09:21:42;;;;;;;1.90;1.05;;;10.10;99.90;;;;;;5080131;28;20082;-85
2021/05/05 09:24:16;;;;;;;2.58;0.80;;;11.50;99.90;;;;;;5079368;28;20079;-84
2021/05/05 09:26:42;;;;;;;2.75;0.88;;;13.10;99.90;;;;;;5079287;28;20040;-84
2021/05/05 09:29:09;;;;;;;11.68;1.40;;;14.50;98.00;;;;;;5080222;28;20040;-86
2021/05/05 09:31:38;;;;;;;3.80;0.98;;;15.60;92.50;;;;;;5101855;28;20116;-85
2021/05/05 09:34:09;;;;;;;2.67;0.93;;;16.70;85.70;;;;;;5101613;28;20147;-87
2021/05/05 09:36:36;;;;;;;2.67;1.15;;;16.50;73.70;;;;;;5081475;28;20083;-81
2021/05/05 09:39:07;;;;;;;5.53;1.20;;;16.60;79.40;;;;;;5079120;28;20487;-84
2021/05/05 09:41:35;;;;;;;2.75;1.05;;;16.50;77.30;;;;;;5078956;28;20105;-86
2021/05/05 09:44:07;;;;;;;3.03;1.02;;;16.50;74.60;;;;;;5078638;28;20055;-85
2021/05/05 09:46:45;;;;;;;4.47;1.33;;;16.30;72.10;;;;;;5096079;28;20075;-86
2021/05/05 09:49:28;;;;;;;5.18;1.02;;;16.60;76.30;;;;;;5078100;28;20127;-84
2021/05/05 09:52:03;;;;;;;9.15;4.10;;;17.00;74.50;;;;;;5077749;28;20560;-82
2021/05/05 09:54:39;;;;;;;3.10;1.00;;;16.70;74.20;;;;;;5077625;28;20117;-81
2021/05/05 09:57:14;;;;;;;1.40;1.10;;;16.30;77.20;;;;;;5077629;28;20091;-82
2021/05/05 10:00:09;;;;;;;3.13;1.15;;;17.30;75.60;;;;;;5077021;28;20048;-81
2021/05/05 10:02:59;;;;;;;2.25;1.00;;;17.00;76.00;;;;;;5095495;28;20048;-82
2021/05/05 10:05:31;;;;;;;3.80;1.13;;;18.80;69.70;;;;;;5077374;28;20138;-82
2021/05/05 10:08:10;;;;;;;4.18;1.30;;;18.60;63.00;;;;;;5079088;28;20072;-83
2021/05/05 10:10:38;;;;;;;4.97;1.42;;;17.00;69.80;;;;;;5080330;28;20048;-82
2021/05/05 10:13:09;;;;;;;5.32;1.42;;;15.70;68.40;;;;;;5097393;28;20449;-85
2021/05/05 10:15:38;;;;;;;4.18;1.13;;;14.90;74.00;;;;;;5097869;28;20506;-85
2021/05/05 10:18:09;;;;;;;3.90;0.80;;;14.30;73.60;;;;;;5097741;28;20071;-85
2021/05/05 10:20:36;;;;;;;5.03;1.30;;;13.90;71.80;;;;;;5098092;28;20063;-86
2021/05/05 10:23:04;;;;;;;5.18;1.50;;;13.20;72.50;;;;;;5098128;28;20048;-82
2021/05/05 10:25:31;;;;;;;6.20;1.40;;;12.60;81.50;;;;;;5080216;28;20130;-84
2021/05/05 10:27:58;;;;;;;2.28;0.88;;;11.80;99.00;;;;;;5098184;28;20044;-86
2021/05/05 10:30:29;;;;;;;2.30;1.00;;;11.30;99.90;;;;;;5080504;28;20040;-86
2021/05/05 10:33:13;;;;;;;1.83;0.95;;;10.90;99.90;;;;;;5082746;28;20442;-85
2021/05/05 10:35:41;;;;;;;2.83;1.48;;;10.30;99.90;;;;;;5082886;28;20040;-84
2021/05/05 10:38:07;;;;;;;2.97;1.35;;;9.60;99.90;;;;;;5079477;28;20048;-81
2021/05/05 10:40:36;;;;;;;5.53;1.95;;;9.00;99.90;;;;;;5058824;28;545202;-84
2021/05/05 10:43:05;;;;;;;4.55;1.90;;;8.50;99.90;;;;;;5095930;28;20468;-86
2021/05/05 10:45:40;;;;;;;3.90;1.90;;;7.90;99.90;;;;;;5078556;28;20136;-83
2021/05/05 10:48:12;;;;;;;6.55;3.05;;;7.40;99.90;;;;;;5078598;28;20059;-88
2021/05/05 10:50:49;;;;;;;3.10;1.58;;;7.30;99.90;;;;;;5078101;28;20064;-87
2021/05/05 10:53:17;;;;;;;1.35;1.10;;;7.30;99.90;;;;;;5078342;28;20048;-88
2021/05/05 10:55:58;;;;;;;1.23;1.10;;;7.40;99.90;;;;;;5077892;28;20044;-88
2021/05/05 10:58:32;;;;;;;2.85;1.58;;;7.40;99.90;;;;;;5077574;28;20050;-88
2021/05/05 11:01:01;;;;;;;3.95;1.77;;;7.70;99.90;;;;;;5095474;28;20054;-88
2021/05/05 11:03:43;;;;;;;3.90;1.60;;;8.00;99.90;;;;;;5077309;28;20071;-89
2021/05/05 11:06:31;;;;;;;3.08;1.83;;;8.30;99.90;;;;;;5077127;28;20097;-88
2021/05/05 11:09:09;;;;;;;2.40;1.50;;;9.40;99.90;;;;;;5077167;28;20075;-87
2021/05/05 11:11:37;;;;;;;1.90;1.02;;;11.20;99.90;;;;;;5076659;28;20044;-87
2021/05/05 11:14:04;;;;;;;1.00;0.80;;;12.20;99.90;;;;;;5078099;28;20127;-87
2021/05/05 11:16:55;;;;;;;1.45;1.10;;;12.00;99.90;;;;;;5077324;28;20048;-88
2021/05/05 11:19:37;;;;;;;1.85;0.75;;;11.60;99.90;;;;;;5076753;28;20048;-87
2021/05/05 11:22:07;;;;;;;2.65;0.80;;;11.40;99.90;;;;;;5077132;28;20568;-86
2021/05/05 11:24:38;;;;;;;2.13;0.80;;;12.30;99.90;;;;;;5095727;28;20135;-87
2021/05/05 11:27:08;;;;;;;4.50;0.90;;;13.80;99.90;;;;;;5078071;28;20071;-86
2021/05/05 11:29:47;;;;;;;1.60;0.55;;;14.80;99.90;;;;;;5077705;28;20067;-87
2021/05/05 11:32:26;;;;;;;1.38;0.80;;;14.30;99.90;;;;;;5078151;28;20123;-85
2021/05/05 11:34:56;;;;;;;6.03;1.08;;;13.00;99.90;;;;;;5098098;28;20475;-87
2021/05/05 11:37:28;;;;;;;1.15;0.77;;;12.10;99.90;;;;;;5078830;28;20101;-86
2021/05/05 11:39:57;;;;;;;1.80;0.93;;;11.20;99.90;;;;;;5096188;28;20052;-87
2021/05/05 11:42:33;;;;;;;3.15;2.10;;;10.10;99.90;;;;;;5078222;28;20075;-86
2021/05/05 11:45:10;;;;;;;1.85;1.10;;;9.80;99.90;;;;;;5078347;28;20411;-87
2021/05/05 11:47:42;;;;;;;1.98;1.25;;;9.80;99.90;;;;;;5077570;28;20048;-87
2021/05/05 11:50:21;;;;;;;1.00;0.75;;;10.20;99.90;;;;;;5077757;28;20388;-86
2021/05/05 11:52:51;;;;;;;2.45;0.93;;;10.20;99.90;;;;;;5078131;28;20101;-86
2021/05/05 11:55:23;;;;;;;3.78;1.60;;;9.90;99.90;;;;;;5076801;28;20044;-86
2021/05/05 11:57:56;;;;;;;3.38;1.75;;;9.40;99.90;;;;;;5076714;28;20117;-86
2021/05/05 12:00:25;;;;;;;;;;;8.80;99.90;;;;;;5077287;28;20047;-82
2021/05/05 12:02:53;;;;;;;1.90;0.98;;;8.00;99.90;;;;;;5077377;28;19920;-83
2021/05/05 12:05:36;;;;;;;0.85;0.85;;;7.10;99.90;;;;;;5096989;28;20054;-83
2021/05/05 12:08:09;;;;;;;1.50;0.90;;;6.40;99.90;;;;;;5081335;28;20138;-85
2021/05/05 12:10:53;;;;;;;1.70;0.80;;;5.90;99.90;;;;;;5080576;28;20492;-83
2021/05/05 12:13:26;;;;;;;0.70;0.65;;;5.60;99.90;;;;;;5098803;28;20048;-85
2021/05/05 12:16:26;;;;;;;1.60;1.02;;;5.40;99.90;;;;;;5083647;28;20044;-86
2021/05/05 12:18:53;;;;;;;1.35;0.88;;;5.50;99.90;;;;;;5087484;28;20048;-85
2021/05/05 12:21:28;;;;;;;0.68;0.50;;;6.00;99.90;;;;;;5106542;28;20545;-85
2021/05/05 12:23:59;;;;;;;0.60;0.60;;;6.60;99.90;;;;;;5089133;28;20051;-86
2021/05/05 12:26:36;;;;;;;0.60;0.60;;;7.40;99.90;;;;;;5082589;28;20048;-88
2021/05/05 12:29:04;;;;;;;0.43;0.43;;;7.80;99.90;;;;;;5081437;28;20048;-87
2021/05/05 12:31:38;;;;;;;0.40;0.40;;;7.70;99.90;;;;;;5083810;28;20052;-89
2021/05/05 12:34:08;;;;;;;0.45;0.45;;;7.60;99.90;;;;;;5081518;28;20117;-86
2021/05/05 12:36:40;;;;;;;0.50;0.50;;;7.50;99.90;;;;;;5080377;28;20451;-87
2021/05/05 12:39:12;;;;;;;0.80;0.80;;;7.30;99.90;;;;;;5079898;28;20479;-88
2021/05/05 12:41:41;;;;;;;1.80;0.68;;;7.40;99.90;;;;;;5081660;28;20082;-86
2021/05/05 12:44:08;;;;;;;0.55;0.55;;;7.40;99.90;;;;;;5080153;28;20411;-88
2021/05/05 12:46:55;;;;;;;0.63;0.63;;;7.50;99.90;;;;;;5080762;28;20048;-87
2021/05/05 12:49:35;;;;;;;0.90;0.55;;;7.40;99.90;;;;;;5080495;28;20127;-85
2021/05/05 12:52:04;;;;;;;0.70;0.40;;;7.50;99.90;;;;;;5079815;28;20139;-86
2021/05/05 12:54:42;;;;;;;0.50;0.50;;;7.70;99.90;;;;;;5078499;28;20114;-85
2021/05/05 12:57:20;;;;;;;0.93;0.40;;;8.00;99.90;;;;;;5080120;28;20064;-87
2021/05/05 12:59:50;;;;;;;0.43;0.43;;;8.10;99.90;;;;;;5080902;28;20487;-87
2021/05/05 13:02:24;;;;;;;0.60;0.60;;;8.30;99.90;;;;;;5080295;28;20052;-87
2021/05/05 13:05:06;;;;;;;2.15;0.50;;;8.30;99.90;;;;;;5081959;28;20098;-87
2021/05/05 13:07:42;;;;;;;1.27;0.60;;;8.30;99.90;;;;;;5095780;28;20067;-87
2021/05/05 13:10:18;;;;;;;0.50;0.50;;;8.30;99.90;;;;;;5078172;28;20044;-86
2021/05/05 13:13:02;;;;;;;1.20;0.40;;;8.40;99.90;;;;;;5079368;28;20044;-86
2021/05/05 13:32:54;;;;;;;0.40;0.40;;;10.50;99.90;;;;;;5092544;28;20043;-85